createdAt,value
2018-09-13T00:00:06.529Z,100456.54
2018-09-13T00:02:37.516Z,100454.39
2018-09-13T00:05:08.531Z,100450.34
2018-09-13T00:07:39.668Z,100441.67
2018-09-13T00:10:10.561Z,100445.69
2018-09-13T00:12:41.521Z,100441.18
2018-09-13T00:15:12.476Z,100445.02
2018-09-13T00:17:43.510Z,100441.03
2018-09-13T00:20:14.482Z,100444.34
2018-09-13T00:22:45.512Z,100446.38
2018-09-13T00:25:16.472Z,100447.02
2018-09-13T00:27:47.572Z,100448.03
2018-09-13T00:30:18.513Z,100436.00
2018-09-13T00:32:49.524Z,100435.68
2018-09-13T00:35:20.477Z,100440.53
2018-09-13T00:37:51.529Z,100434.33
2018-09-13T00:40:22.497Z,100435.00
2018-09-13T00:42:53.498Z,100442.52
2018-09-13T00:45:24.502Z,100428.66
2018-09-13T00:47:55.513Z,100430.48
2018-09-13T00:50:26.497Z,100436.35
2018-09-13T00:52:57.489Z,100439.18
2018-09-13T00:55:28.489Z,100436.02
2018-09-13T00:57:59.582Z,100434.50
2018-09-13T01:00:30.517Z,100437.00
2018-09-13T01:03:01.501Z,100439.69
2018-09-13T01:05:32.482Z,100435.67
2018-09-13T01:08:03.618Z,100432.50
2018-09-13T01:10:34.537Z,100431.30
2018-09-13T01:13:05.506Z,100422.97
2018-09-13T01:15:36.513Z,100426.81
2018-09-13T01:18:07.501Z,100427.48
2018-09-13T01:20:38.494Z,100423.95
2018-09-13T01:23:09.542Z,100427.97
2018-09-13T01:25:40.519Z,100426.30
2018-09-13T01:28:11.519Z,100422.93
2018-09-13T01:30:42.492Z,100426.28
2018-09-13T01:33:13.505Z,100420.43
2018-09-13T01:35:44.546Z,100422.89
2018-09-13T01:38:15.511Z,100434.75
2018-09-13T01:40:46.530Z,100442.33
2018-09-13T01:43:17.497Z,100443.92
2018-09-13T01:45:48.481Z,100428.45
2018-09-13T01:48:19.599Z,100419.57
2018-09-13T01:50:50.498Z,100417.61
2018-09-13T01:53:21.523Z,100413.06
2018-09-13T01:55:52.514Z,100412.55
2018-09-13T01:58:24.010Z,100407.86
2018-09-13T02:00:55.455Z,100406.86
2018-09-13T02:03:26.550Z,100408.55
2018-09-13T02:05:57.498Z,100404.84
2018-09-13T02:08:28.505Z,100406.70
2018-09-13T02:10:59.498Z,100407.19
2018-09-13T02:13:30.532Z,100413.53
2018-09-13T02:16:01.526Z,100405.84
2018-09-13T02:18:32.558Z,100421.03
2018-09-13T02:21:03.525Z,100417.52
2018-09-13T02:23:34.505Z,100405.50
2018-09-13T02:26:05.497Z,100404.80
2018-09-13T02:31:53.548Z,100416.15
2018-09-13T02:34:24.510Z,100405.97
2018-09-13T02:36:55.481Z,100404.13
2018-09-13T02:39:26.517Z,100405.16
2018-09-13T02:41:57.498Z,100397.97
2018-09-13T02:44:28.497Z,100396.11
2018-09-13T02:46:59.521Z,100393.11
2018-09-13T02:49:30.515Z,100399.59
2018-09-13T02:52:01.654Z,100405.63
2018-09-13T02:54:32.552Z,100410.13
2018-09-13T02:57:03.518Z,100411.95
2018-09-13T02:59:34.529Z,100408.79
2018-09-13T03:02:05.496Z,100401.80
2018-09-13T03:04:36.533Z,100409.63
2018-09-13T03:07:07.492Z,100407.27
2018-09-13T03:09:38.518Z,100405.78
2018-09-13T03:12:09.493Z,100393.90
2018-09-13T03:14:40.533Z,100391.09
2018-09-13T03:17:11.527Z,100386.20
2018-09-13T03:19:42.485Z,100383.89
2018-09-13T03:22:13.476Z,100383.41
2018-09-13T03:24:44.481Z,100373.38
2018-09-13T03:27:15.534Z,100374.56
2018-09-13T03:29:46.560Z,100368.19
2018-09-13T03:32:17.498Z,100359.34
2018-09-13T03:34:48.634Z,100366.06
2018-09-13T03:37:19.541Z,100364.54
2018-09-13T03:39:50.555Z,100368.87
2018-09-13T03:42:21.478Z,100368.53
2018-09-13T03:44:52.518Z,100377.38
2018-09-13T03:47:23.488Z,100378.38
2018-09-13T03:49:54.559Z,100380.03
2018-09-13T03:52:25.490Z,100376.38
2018-09-13T03:54:56.515Z,100370.88
2018-09-13T03:57:27.522Z,100371.22
2018-09-13T03:59:58.503Z,100369.02
2018-09-13T04:02:30.371Z,100374.02
2018-09-13T04:05:01.512Z,100375.87
2018-09-13T04:07:32.485Z,100373.02
2018-09-13T04:10:03.550Z,100373.52
2018-09-13T04:12:34.551Z,100375.03
2018-09-13T04:15:05.691Z,100378.34
2018-09-13T04:17:36.586Z,100372.03
2018-09-13T04:20:07.489Z,100372.70
2018-09-13T04:22:38.536Z,100379.35
2018-09-13T04:25:09.493Z,100369.66
2018-09-13T04:27:40.512Z,100371.14
2018-09-13T04:30:11.477Z,100375.34
2018-09-13T04:32:42.485Z,100370.69
2018-09-13T04:35:13.503Z,100366.83
2018-09-13T04:37:44.598Z,100358.66
2018-09-13T04:40:15.554Z,100354.65
2018-09-13T04:42:46.501Z,100359.16
2018-09-13T04:45:17.496Z,100359.81
2018-09-13T04:47:48.569Z,100359.81
2018-09-13T04:50:19.513Z,100361.33
2018-09-13T04:52:50.505Z,100368.31
2018-09-13T04:55:21.558Z,100372.83
2018-09-13T04:57:52.555Z,100377.32
2018-09-13T05:00:23.591Z,100373.66
2018-09-13T05:02:54.519Z,100380.20
2018-09-13T05:05:25.537Z,100379.01
2018-09-13T05:07:56.513Z,100384.03
2018-09-13T05:10:27.514Z,100381.30
2018-09-13T05:12:58.577Z,100382.00
2018-09-13T05:15:29.506Z,100381.34
2018-09-13T05:18:00.481Z,100377.16
2018-09-13T05:20:31.489Z,100376.17
2018-09-13T05:23:02.499Z,100386.31
2018-09-13T05:25:33.527Z,100380.01
2018-09-13T05:28:04.533Z,100378.32
2018-09-13T05:30:35.534Z,100379.66
2018-09-13T05:33:07.026Z,100376.31
2018-09-13T05:35:38.290Z,100376.66
2018-09-13T05:38:09.363Z,100374.03
2018-09-13T05:40:40.493Z,100378.72
2018-09-13T05:43:11.501Z,100384.20
2018-09-13T05:45:42.496Z,100377.52
2018-09-13T05:48:13.597Z,100371.25
2018-09-13T05:50:44.655Z,100369.86
2018-09-13T05:53:15.583Z,100377.53
2018-09-13T05:55:46.550Z,100378.40
2018-09-13T05:58:17.503Z,100381.79
2018-09-13T06:00:48.604Z,100381.25
2018-09-13T06:03:19.498Z,100377.70
2018-09-13T06:05:51.001Z,100374.39
2018-09-13T06:08:22.317Z,100380.73
2018-09-13T06:10:53.405Z,100388.42
2018-09-13T06:13:24.574Z,100379.89
2018-09-13T06:15:55.481Z,100383.58
2018-09-13T06:18:26.493Z,100385.91
2018-09-13T06:20:57.481Z,100392.94
2018-09-13T06:23:28.476Z,100395.73
2018-09-13T06:25:59.516Z,100391.45
2018-09-13T06:28:30.482Z,100389.45
2018-09-13T06:31:01.477Z,100393.78
2018-09-13T06:33:32.486Z,100393.59
2018-09-13T06:36:03.472Z,100388.15
2018-09-13T06:38:34.469Z,100394.84
2018-09-13T06:41:05.527Z,100402.25
2018-09-13T06:43:36.482Z,100409.77
2018-09-13T06:46:07.477Z,100401.91
2018-09-13T06:48:38.571Z,100406.44
2018-09-13T06:51:09.510Z,100418.97
2018-09-13T06:53:40.546Z,100419.78
2018-09-13T06:56:11.514Z,100414.45
2018-09-13T06:58:42.502Z,100412.78
2018-09-13T07:01:13.489Z,100406.25
2018-09-13T07:03:44.485Z,100406.58
2018-09-13T07:06:15.496Z,100413.63
2018-09-13T07:08:46.627Z,100414.27
2018-09-13T07:11:17.519Z,100424.30
2018-09-13T07:13:48.579Z,100417.46
2018-09-13T07:16:19.641Z,100417.95
2018-09-13T07:18:50.797Z,100415.79
2018-09-13T07:21:21.633Z,100421.28
2018-09-13T07:23:52.490Z,100421.44
2018-09-13T07:26:23.509Z,100421.11
2018-09-13T07:28:54.489Z,100418.27
2018-09-13T07:31:25.521Z,100413.09
2018-09-13T07:33:56.533Z,100415.73
2018-09-13T07:36:27.522Z,100412.91
2018-09-13T07:38:59.022Z,100417.59
2018-09-13T07:41:30.374Z,100415.77
2018-09-13T07:44:01.506Z,100421.26
2018-09-13T07:46:32.507Z,100421.44
2018-09-13T07:49:03.584Z,100423.94
2018-09-13T07:51:34.501Z,100432.28
2018-09-13T07:54:05.517Z,100426.75
2018-09-13T07:56:36.567Z,100425.27
2018-09-13T07:59:08.213Z,100434.14
2018-09-13T08:01:40.294Z,100433.25
2018-09-13T08:04:11.377Z,100435.05
2018-09-13T08:06:42.493Z,100433.77
2018-09-13T08:09:15.221Z,100432.90
2018-09-13T08:11:46.389Z,100434.38
2018-09-13T08:14:17.490Z,100433.36
2018-09-13T08:16:48.498Z,100436.02
2018-09-13T08:19:19.481Z,100436.31
2018-09-13T08:21:50.746Z,100433.45
2018-09-13T08:24:21.501Z,100440.45
2018-09-13T08:26:52.503Z,100443.02
2018-09-13T08:29:23.457Z,100447.11
2018-09-13T08:31:54.525Z,100434.63
2018-09-13T08:34:25.494Z,100447.45
2018-09-13T08:36:56.525Z,100442.01
2018-09-13T08:39:27.469Z,100440.35
2018-09-13T08:41:58.537Z,100442.22
2018-09-13T08:44:29.502Z,100444.94
2018-09-13T08:47:00.505Z,100440.47
2018-09-13T08:49:31.454Z,100438.38
2018-09-13T08:52:02.586Z,100450.58
2018-09-13T08:54:33.541Z,100453.48
2018-09-13T08:57:04.545Z,100456.50
2018-09-13T08:59:35.525Z,100463.09
2018-09-13T09:02:06.538Z,100466.12
2018-09-13T09:04:37.469Z,100461.47
2018-09-13T09:07:08.548Z,100472.56
2018-09-13T09:09:39.530Z,100471.23
2018-09-13T09:12:10.497Z,100475.89
2018-09-13T09:14:41.464Z,100473.52
2018-09-13T09:17:12.615Z,100468.68
2018-09-13T09:19:43.483Z,100469.81
2018-09-13T09:22:14.494Z,100468.05
2018-09-13T09:24:45.464Z,100458.23
2018-09-13T09:27:16.537Z,100462.73
2018-09-13T09:29:47.554Z,100460.33
2018-09-13T09:32:18.509Z,100445.48
2018-09-13T09:34:49.548Z,100435.72
2018-09-13T09:37:20.528Z,100434.45
2018-09-13T09:39:51.510Z,100434.16
2018-09-13T09:42:22.509Z,100435.00
2018-09-13T09:44:53.505Z,100451.91
2018-09-13T09:47:24.514Z,100477.70
2018-09-13T09:49:55.535Z,100473.20
2018-09-13T09:52:26.555Z,100471.47
2018-09-13T09:54:59.214Z,100462.86
2018-09-13T09:57:30.394Z,100458.92
2018-09-13T10:00:01.482Z,100463.22
2018-09-13T10:02:32.514Z,100454.81
2018-09-13T10:05:03.490Z,100454.08
2018-09-13T10:07:34.509Z,100447.48
2018-09-13T10:10:05.548Z,100445.06
2018-09-13T10:12:36.524Z,100443.70
2018-09-13T10:15:12.863Z,100434.54
2018-09-13T10:17:48.749Z,100415.88
2018-09-13T10:20:24.740Z,100413.17
2018-09-13T10:23:00.713Z,100424.62
2018-09-13T10:25:36.610Z,100426.43
2018-09-13T10:28:12.760Z,100421.84
2018-09-13T10:30:48.722Z,100429.23
2018-09-13T10:33:24.565Z,100441.41
2018-09-13T10:36:00.857Z,100448.44
2018-09-13T10:41:23.496Z,100463.56
2018-09-13T10:44:59.348Z,100471.17
2018-09-13T10:47:35.556Z,100461.83
2018-09-13T10:50:11.769Z,100460.57
2018-09-13T10:52:44.513Z,100449.42
2018-09-13T10:55:15.520Z,100452.02
2018-09-13T10:57:46.505Z,100450.80
2018-09-13T11:00:17.493Z,100454.64
2018-09-13T11:02:48.503Z,100452.32
2018-09-13T11:05:19.498Z,100447.33
2018-09-13T11:07:50.502Z,100448.69
2018-09-13T11:10:21.483Z,100443.19
2018-09-13T11:12:57.749Z,100446.81
2018-09-13T11:15:35.460Z,100444.25
2018-09-13T11:18:07.606Z,100446.17
2018-09-13T11:20:38.556Z,100436.75
2018-09-13T11:23:09.530Z,100427.84
2018-09-13T11:25:40.510Z,100415.06
2018-09-13T11:28:11.498Z,100417.60
2018-09-13T11:30:42.552Z,100416.17
2018-09-13T11:33:13.518Z,100418.33
2018-09-13T11:35:44.509Z,100423.94
2018-09-13T11:38:15.513Z,100426.99
2018-09-13T11:40:46.815Z,100439.09
2018-09-13T11:43:17.521Z,100446.34
2018-09-13T11:45:48.554Z,100444.31
2018-09-13T11:48:19.491Z,100441.17
2018-09-13T11:50:50.545Z,100440.94
2018-09-13T11:53:21.497Z,100436.78
2018-09-13T11:55:52.511Z,100436.80
2018-09-13T11:58:23.507Z,100420.45
2018-09-13T12:00:54.489Z,100407.70
2018-09-13T12:03:25.481Z,100397.28
2018-09-13T12:05:56.489Z,100390.86
2018-09-13T12:08:27.611Z,100389.69
2018-09-13T12:10:58.561Z,100397.91
2018-09-13T12:13:29.530Z,100400.64
2018-09-13T12:16:00.509Z,100408.20
2018-09-13T12:18:31.581Z,100419.20
2018-09-13T12:21:02.518Z,100418.27
2018-09-13T12:23:33.531Z,100426.87
2018-09-13T12:26:04.538Z,100437.28
2018-09-13T12:28:35.497Z,100439.64
2018-09-13T12:31:06.645Z,100436.59
2018-09-13T12:33:37.504Z,100433.80
2018-09-13T12:36:08.702Z,100430.56
2018-09-13T12:38:39.576Z,100433.65
2018-09-13T12:41:10.521Z,100432.11
2018-09-13T12:43:41.503Z,100436.25
2018-09-13T12:46:12.513Z,100437.33
2018-09-13T12:48:43.501Z,100437.77
2018-09-13T12:51:14.482Z,100429.22
2018-09-13T12:53:45.651Z,100420.39
2018-09-13T12:56:16.557Z,100412.31
2018-09-13T12:58:47.503Z,100408.03
2018-09-13T13:01:18.512Z,100402.45
2018-09-13T13:03:49.726Z,100402.33
2018-09-13T13:06:20.597Z,100410.05
2018-09-13T13:08:51.681Z,100415.67
2018-09-13T13:11:22.518Z,100408.66
2018-09-13T13:13:53.522Z,100415.08
2018-09-13T13:16:24.559Z,100423.19
2018-09-13T13:18:55.490Z,100415.07
2018-09-13T13:21:26.505Z,100409.05
2018-09-13T13:23:57.493Z,100405.56
2018-09-13T13:26:28.557Z,100402.28
2018-09-13T13:28:59.489Z,100408.08
2018-09-13T13:31:30.534Z,100404.66
2018-09-13T13:34:01.497Z,100402.47
2018-09-13T13:36:32.507Z,100399.84
2018-09-13T13:39:03.566Z,100399.97
2018-09-13T13:41:34.546Z,100392.27
2018-09-13T13:44:05.616Z,100387.48
2018-09-13T13:46:36.506Z,100388.83
2018-09-13T13:49:07.510Z,100387.73
2018-09-13T13:51:38.520Z,100377.47
2018-09-13T13:54:09.486Z,100377.44
2018-09-13T13:56:40.481Z,100370.02
2018-09-13T13:59:11.471Z,100372.69
2018-09-13T14:01:42.457Z,100376.02
2018-09-13T14:04:13.425Z,100367.22
2018-09-13T14:06:44.455Z,100369.41
2018-09-13T14:09:15.485Z,100370.27
2018-09-13T14:11:46.520Z,100362.29
2018-09-13T14:14:17.514Z,100364.23
2018-09-13T14:16:48.497Z,100366.13
2018-09-13T14:19:19.512Z,100358.26
2018-09-13T14:21:50.570Z,100359.07
2018-09-13T14:24:21.499Z,100358.91
2018-09-13T14:26:52.508Z,100360.05
2018-09-13T14:29:23.531Z,100357.50
2018-09-13T14:31:54.505Z,100355.81
2018-09-13T14:34:25.537Z,100354.47
2018-09-13T14:36:56.514Z,100341.28
2018-09-13T14:39:27.501Z,100346.77
2018-09-13T14:41:58.524Z,100346.02
2018-09-13T14:44:29.574Z,100345.27
2018-09-13T14:47:02.450Z,100350.17
2018-09-13T14:49:33.521Z,100347.16
2018-09-13T14:52:04.497Z,100346.83
2018-09-13T14:54:35.649Z,100344.16
2018-09-13T14:57:06.590Z,100342.62
2018-09-13T14:59:37.563Z,100341.28
2018-09-13T15:02:08.521Z,100337.87
2018-09-13T15:04:39.567Z,100335.84
2018-09-13T15:07:10.531Z,100337.42
2018-09-13T15:09:42.025Z,100328.03
2018-09-13T15:12:13.302Z,100329.13
2018-09-13T15:14:44.392Z,100329.56
2018-09-13T15:17:15.626Z,100333.39
2018-09-13T15:19:46.626Z,100327.02
2018-09-13T15:22:17.570Z,100326.95
2018-09-13T15:24:48.785Z,100333.39
2018-09-13T15:27:19.730Z,100337.14
2018-09-13T15:29:50.614Z,100330.98
2018-09-13T15:32:21.513Z,100332.27
2018-09-13T15:34:52.534Z,100334.17
2018-09-13T15:37:23.616Z,100330.98
2018-09-13T15:39:54.590Z,100335.21
2018-09-13T15:42:25.520Z,100336.86
2018-09-13T15:44:56.534Z,100332.37
2018-09-13T15:47:27.501Z,100333.23
2018-09-13T15:49:58.505Z,100339.16
2018-09-13T15:52:29.582Z,100336.91
2018-09-13T15:55:00.497Z,100337.65
2018-09-13T15:57:31.493Z,100333.02
2018-09-13T16:00:02.513Z,100336.47
2018-09-13T16:02:33.510Z,100335.46
2018-09-13T16:05:04.523Z,100343.64
2018-09-13T16:07:35.530Z,100341.73
2018-09-13T16:10:06.612Z,100346.86
2018-09-13T16:12:37.769Z,100348.11
2018-09-13T16:15:08.558Z,100347.80
2018-09-13T16:17:39.520Z,100356.06
2018-09-13T16:20:10.481Z,100350.94
2018-09-13T16:22:41.569Z,100344.41
2018-09-13T16:25:12.477Z,100345.32
2018-09-13T16:27:43.563Z,100341.98
2018-09-13T16:30:14.509Z,100336.62
2018-09-13T16:32:45.509Z,100338.00
2018-09-13T16:35:16.566Z,100332.63
2018-09-13T16:37:53.339Z,100331.03
2018-09-13T16:40:29.325Z,100334.31
2018-09-13T16:43:05.693Z,100335.86
2018-09-13T16:45:36.554Z,100337.81
2018-09-13T16:48:08.234Z,100342.04
2018-09-13T16:50:39.356Z,100343.72
2018-09-13T16:53:10.426Z,100339.73
2018-09-13T16:55:41.380Z,100349.55
2018-09-13T16:58:12.522Z,100340.25
2018-09-13T17:00:43.502Z,100337.16
2018-09-13T17:06:01.473Z,100344.53
2018-09-13T17:08:32.571Z,100348.11
2018-09-13T17:11:03.563Z,100350.89
2018-09-13T17:13:34.532Z,100345.72
2018-09-13T17:16:05.508Z,100350.48
2018-09-13T17:18:36.492Z,100350.89
2018-09-13T17:21:07.545Z,100346.52
2018-09-13T17:23:38.662Z,100346.31
2018-09-13T17:26:09.555Z,100346.72
2018-09-13T17:28:40.490Z,100350.54
2018-09-13T17:31:11.783Z,100357.06
2018-09-13T17:33:42.567Z,100351.05
2018-09-13T17:36:13.486Z,100348.98
2018-09-13T17:38:44.526Z,100354.25
2018-09-13T17:41:15.539Z,100356.41
2018-09-13T17:43:46.482Z,100357.80
2018-09-13T17:46:17.465Z,100358.47
2018-09-13T17:48:48.543Z,100357.97
2018-09-13T17:51:19.490Z,100357.70
2018-09-13T17:53:50.476Z,100358.06
2018-09-13T17:56:21.487Z,100354.45
2018-09-13T17:58:52.506Z,100353.77
2018-09-13T18:01:23.545Z,100356.95
2018-09-13T18:03:54.472Z,100353.34
2018-09-13T18:06:25.465Z,100365.13
2018-09-13T18:08:56.496Z,100366.73
2018-09-13T18:11:27.491Z,100365.89
2018-09-13T18:13:59.278Z,100371.34
2018-09-13T18:16:30.383Z,100370.72
2018-09-13T18:19:01.523Z,100372.52
2018-09-13T18:21:32.530Z,100376.86
2018-09-13T18:24:03.618Z,100376.70
2018-09-13T18:26:34.505Z,100374.28
2018-09-13T18:29:05.970Z,100387.70
2018-09-13T18:31:36.899Z,100381.22
2018-09-13T18:34:08.013Z,100394.79
2018-09-13T18:36:39.286Z,100387.61
2018-09-13T18:39:11.823Z,100397.16
2018-09-13T18:41:42.670Z,100399.91
2018-09-13T18:44:13.562Z,100401.16
2018-09-13T18:49:30.940Z,100400.38
2018-09-13T18:52:02.227Z,100397.47
2018-09-13T18:54:33.509Z,100401.38
2018-09-13T18:57:04.525Z,100396.47
2018-09-13T18:59:35.550Z,100403.37
2018-09-13T19:02:06.546Z,100399.16
2018-09-13T19:04:37.517Z,100408.82
2018-09-13T19:07:08.629Z,100414.07
2018-09-13T19:09:39.671Z,100408.64
2018-09-13T19:12:10.552Z,100416.03
2018-09-13T19:14:41.549Z,100418.77
2018-09-13T19:17:12.571Z,100415.08
2018-09-13T19:19:43.473Z,100417.70
2018-09-13T19:22:14.513Z,100419.53
2018-09-13T19:24:46.286Z,100418.28
2018-09-13T19:27:17.371Z,100420.16
2018-09-13T19:29:48.561Z,100426.22
2018-09-13T19:32:19.818Z,100430.75
2018-09-13T19:34:51.824Z,100438.50
2018-09-13T19:37:23.223Z,100440.17
2018-09-13T19:39:53.398Z,100441.21
2018-09-13T19:42:24.495Z,100442.93
2018-09-13T19:44:57.255Z,100444.66
2018-09-13T19:47:28.447Z,100447.72
2018-09-13T19:49:59.845Z,100446.38
2018-09-13T19:52:31.280Z,100449.16
2018-09-13T19:55:02.466Z,100449.91
2018-09-13T19:57:33.526Z,100446.86
2018-09-13T20:00:04.548Z,100457.64
2018-09-13T20:02:35.598Z,100457.82
2018-09-13T20:05:06.698Z,100462.69
2018-09-13T20:07:37.576Z,100464.52
2018-09-13T20:10:08.657Z,100464.52
2018-09-13T20:12:40.014Z,100469.38
2018-09-13T20:15:11.428Z,100470.23
2018-09-13T20:17:42.554Z,100463.05
2018-09-13T20:20:13.610Z,100467.07
2018-09-13T20:22:44.571Z,100460.55
2018-09-13T20:25:15.887Z,100464.39
2018-09-13T20:27:49.812Z,100466.75
2018-09-13T20:30:20.635Z,100470.09
2018-09-13T20:32:51.580Z,100464.42
2018-09-13T20:35:22.545Z,100465.58
2018-09-13T20:37:53.754Z,100475.45
2018-09-13T20:40:24.561Z,100470.11
2018-09-13T20:42:55.754Z,100475.77
2018-09-13T20:45:26.598Z,100476.12
2018-09-13T20:47:57.520Z,100481.28
2018-09-13T20:50:28.529Z,100480.97
2018-09-13T20:52:59.554Z,100477.80
2018-09-13T20:55:30.488Z,100473.61
2018-09-13T20:58:01.589Z,100475.77
2018-09-13T21:00:33.601Z,100479.09
2018-09-13T21:03:05.686Z,100480.77
2018-09-13T21:05:36.610Z,100483.42
2018-09-13T21:08:07.590Z,100484.41
2018-09-13T21:10:38.502Z,100480.13
2018-09-13T21:13:09.587Z,100479.06
2018-09-13T21:15:40.547Z,100485.13
2018-09-13T21:18:11.547Z,100491.70
2018-09-13T21:20:42.502Z,100490.92
2018-09-13T21:23:13.480Z,100494.58
2018-09-13T21:25:44.584Z,100490.86
2018-09-13T21:28:15.518Z,100499.36
2018-09-13T21:30:46.523Z,100492.14
2018-09-13T21:33:17.494Z,100495.64
2018-09-13T21:35:48.553Z,100496.78
2018-09-13T21:38:19.538Z,100495.91
2018-09-13T21:40:50.500Z,100506.56
2018-09-13T21:43:21.507Z,100498.17
2018-09-13T21:45:52.539Z,100503.73
2018-09-13T21:48:23.486Z,100505.77
2018-09-13T21:50:54.481Z,100501.03
2018-09-13T21:53:25.497Z,100504.25
2018-09-13T21:55:56.522Z,100502.75
2018-09-13T21:58:27.547Z,100510.23
2018-09-13T22:00:58.553Z,100507.41
2018-09-13T22:03:29.478Z,100507.53
2018-09-13T22:06:00.538Z,100505.29
2018-09-13T22:08:31.483Z,100507.92
2018-09-13T22:11:02.522Z,100508.09
2018-09-13T22:13:33.739Z,100511.30
2018-09-13T22:16:04.654Z,100510.52
2018-09-13T22:18:35.553Z,100515.37
2018-09-13T22:21:06.655Z,100513.16
2018-09-13T22:23:37.530Z,100521.36
2018-09-13T22:26:08.627Z,100519.95
2018-09-13T22:28:39.590Z,100514.52
2018-09-13T22:31:10.500Z,100516.53
2018-09-13T22:33:41.881Z,100512.33
2018-09-13T22:36:12.897Z,100509.09
2018-09-13T22:38:43.685Z,100512.22
2018-09-13T22:41:14.502Z,100515.48
2018-09-13T22:43:52.667Z,100511.48
2018-09-13T22:46:24.437Z,100511.80
2018-09-13T22:48:55.485Z,100510.05
2018-09-13T22:51:26.755Z,100514.58
2018-09-13T22:53:57.546Z,100510.70
2018-09-13T22:56:28.529Z,100509.68
2018-09-13T22:58:59.476Z,100506.16
2018-09-13T23:01:30.505Z,100503.02
2018-09-13T23:04:01.497Z,100511.43
2018-09-13T23:06:32.502Z,100507.67
2018-09-13T23:09:03.516Z,100506.01
2018-09-13T23:11:34.559Z,100508.72
2018-09-13T23:14:05.516Z,100507.94
2018-09-13T23:16:36.683Z,100505.84
2018-09-13T23:19:07.801Z,100500.36
2018-09-13T23:21:39.006Z,100502.21
2018-09-13T23:24:10.300Z,100504.08
2018-09-13T23:26:41.364Z,100503.72
2018-09-13T23:29:12.362Z,100499.12
2018-09-13T23:31:43.550Z,100501.68
2018-09-13T23:34:15.577Z,100500.72
2018-09-13T23:36:46.493Z,100499.12
2018-09-13T23:39:17.654Z,100491.84
2018-09-13T23:41:48.530Z,100497.01
2018-09-13T23:44:19.514Z,100499.72
2018-09-13T23:46:50.535Z,100509.45
2018-09-13T23:49:21.538Z,100509.87
2018-09-13T23:51:52.527Z,100506.11
2018-09-13T23:54:23.478Z,100505.47
2018-09-13T23:56:54.515Z,100508.24
2018-09-13T23:59:25.512Z,100513.73
